Time;durP1;ratioP1;P1;durP2;ratioP2;P2;SDS_P1;SDS_P2;PMS_P1;PMS_P2;Temp;Humidity;BMP_temperature;BMP_pressure;BME280_temperature;BME280_humidity;BME280_pressure;Samples;Min_cycle;Max_cycle;Signal;HPM_P1;HPM_P2
2021/06/05 04:48:47;;;;;;;4.43;1.40;;;23.50;64.40;;;;;;5100647;27;20159;-75
2021/06/05 04:51:13;;;;;;;6.00;1.50;;;23.50;64.20;;;;;;5099565;28;20028;-75
2021/06/05 04:53:39;;;;;;;4.80;1.63;;;23.50;64.30;;;;;;5087570;28;20024;-75
2021/06/05 04:56:05;;;;;;;5.05;1.50;;;23.60;64.30;;;;;;5081480;28;20082;-75
2021/06/05 04:58:30;;;;;;;6.95;2.00;;;23.60;64.20;;;;;;5084702;28;20114;-75
2021/06/05 05:00:56;;;;;;;5.47;1.48;;;23.60;64.30;;;;;;5092712;28;20031;-76
2021/06/05 05:03:24;;;;;;;7.60;2.97;;;23.60;64.20;;;;;;5094867;28;20103;-77
2021/06/05 05:05:51;;;;;;;4.85;2.30;;;23.60;63.60;;;;;;5098871;28;20031;-78
2021/06/05 05:08:17;;;;;;;7.47;2.40;;;23.60;63.60;;;;;;5080161;28;20032;-76
2021/06/05 05:10:46;;;;;;;7.20;1.88;;;23.60;63.60;;;;;;5092964;28;20024;-76
2021/06/05 05:13:13;;;;;;;6.47;1.95;;;23.60;63.60;;;;;;5066188;28;20099;-76
2021/06/05 05:15:40;;;;;;;6.28;2.30;;;23.60;63.00;;;;;;4945994;27;20122;-76
2021/06/05 05:18:06;;;;;;;4.07;2.35;;;23.60;62.60;;;;;;4994374;28;20717;-77
2021/06/05 05:20:33;;;;;;;6.90;2.28;;;23.60;62.60;;;;;;5098410;28;20012;-76
2021/06/05 05:22:59;;;;;;;7.03;2.10;;;23.60;62.80;;;;;;5084113;28;20024;-75
2021/06/05 05:25:25;;;;;;;7.80;2.30;;;23.60;63.10;;;;;;5080413;28;20111;-76
2021/06/05 05:27:50;;;;;;;5.72;2.30;;;23.60;63.10;;;;;;5103987;28;20507;-76
2021/06/05 05:30:21;;;;;;;7.38;2.20;;;23.60;63.20;;;;;;5118112;27;20016;-76
2021/06/05 05:32:47;;;;;;;7.53;2.13;;;23.60;63.20;;;;;;5087296;28;20363;-76
2021/06/05 05:35:14;;;;;;;4.10;2.15;;;23.60;63.20;;;;;;5090134;28;20074;-76
2021/06/05 05:37:40;;;;;;;4.72;2.08;;;23.50;63.20;;;;;;5104496;28;20024;-75
2021/06/05 05:40:07;;;;;;;4.65;2.10;;;23.60;63.30;;;;;;5089380;28;20100;-76
2021/06/05 05:42:33;;;;;;;3.60;1.95;;;23.60;63.40;;;;;;5088801;28;20028;-76
2021/06/05 05:44:58;;;;;;;4.85;1.90;;;23.50;63.40;;;;;;5102970;28;20020;-76
2021/06/05 05:47:24;;;;;;;4.80;2.10;;;23.50;63.40;;;;;;5091062;28;20044;-75
2021/06/05 05:49:50;;;;;;;5.13;2.10;;;23.50;63.50;;;;;;5085518;28;20032;-76
2021/06/05 05:52:15;;;;;;;5.35;2.05;;;23.50;63.50;;;;;;5100161;28;20004;-76
2021/06/05 05:54:41;;;;;;;3.85;1.83;;;23.50;63.50;;;;;;5086395;28;20032;-76
2021/06/05 05:57:07;;;;;;;5.50;1.85;;;23.50;63.50;;;;;;5087432;28;20028;-75
2021/06/05 05:59:32;;;;;;;4.80;2.17;;;23.50;63.50;;;;;;5090841;28;20040;-75
2021/06/05 06:01:58;;;;;;;4.18;2.10;;;23.50;63.50;;;;;;5088799;28;20081;-75
2021/06/05 06:04:23;;;;;;;3.50;1.70;;;23.50;63.50;;;;;;5077891;28;20028;-76
2021/06/05 06:06:49;;;;;;;4.40;2.30;;;23.50;63.50;;;;;;5079079;28;20095;-76
2021/06/05 06:09:16;;;;;;;4.35;2.15;;;23.50;63.50;;;;;;5080156;28;20021;-76
2021/06/05 06:11:46;;;;;;;3.60;2.00;;;23.50;63.50;;;;;;5090868;28;20016;-76
2021/06/05 06:14:13;;;;;;;4.85;2.10;;;23.50;63.60;;;;;;5088492;28;20040;-76
2021/06/05 06:16:39;;;;;;;4.72;2.20;;;23.50;63.60;;;;;;5071466;28;20012;-75
2021/06/05 06:19:05;;;;;;;3.72;2.00;;;23.50;63.60;;;;;;5085902;28;20391;-76
2021/06/05 06:21:31;;;;;;;4.75;1.98;;;23.50;63.80;;;;;;5089223;28;20019;-76
2021/06/05 06:23:56;;;;;;;6.72;2.08;;;23.50;63.70;;;;;;5090136;28;20020;-76
2021/06/05 06:26:27;;;;;;;4.65;2.30;;;23.50;63.70;;;;;;5077972;28;20104;-76
2021/06/05 06:28:53;;;;;;;5.65;2.22;;;23.50;64.30;;;;;;5081674;28;20107;-76
2021/06/05 06:31:19;;;;;;;11.73;2.65;;;23.50;63.90;;;;;;5041484;28;20127;-79
2021/06/05 06:33:45;;;;;;;4.68;2.53;;;23.60;65.00;;;;;;5071737;28;20032;-78
2021/06/05 06:36:12;;;;;;;5.43;2.47;;;23.50;64.10;;;;;;5072743;28;20028;-82
2021/06/05 06:38:40;;;;;;;4.28;2.22;;;23.40;64.30;;;;;;5076655;28;20111;-81
2021/06/05 06:41:09;;;;;;;4.80;2.20;;;23.30;64.70;;;;;;5050118;28;20103;-78
2021/06/05 06:43:36;;;;;;;5.03;2.92;;;23.20;64.90;;;;;;5087568;28;20031;-78
2021/06/05 06:46:04;;;;;;;4.22;2.30;;;23.20;65.10;;;;;;5073463;28;20028;-80
2021/06/05 06:48:29;;;;;;;4.65;2.30;;;23.10;65.20;;;;;;5085161;28;20099;-78
2021/06/05 06:50:55;;;;;;;5.13;2.40;;;23.10;65.30;;;;;;5085798;28;20017;-78
2021/06/05 06:53:21;;;;;;;5.93;2.10;;;23.10;65.40;;;;;;5088935;28;20044;-77
2021/06/05 06:55:50;;;;;;;4.90;2.13;;;23.10;65.50;;;;;;5082777;28;20463;-83
2021/06/05 06:58:19;;;;;;;6.07;2.53;;;23.00;65.60;;;;;;5075980;28;20029;-80
2021/06/05 07:00:46;;;;;;;5.65;2.50;;;23.10;65.90;;;;;;5053062;28;20120;-79
2021/06/05 07:03:12;;;;;;;5.03;2.58;;;23.10;65.80;;;;;;5081468;28;20024;-79
2021/06/05 07:05:37;;;;;;;5.85;2.05;;;23.00;65.90;;;;;;5069863;28;20042;-80
2021/06/05 07:08:08;;;;;;;6.80;2.58;;;23.00;66.10;;;;;;5085915;28;20355;-78
2021/06/05 07:10:34;;;;;;;16.67;3.55;;;23.00;66.00;;;;;;5075298;28;20015;-78
2021/06/05 07:12:59;;;;;;;5.40;2.42;;;23.10;66.30;;;;;;5106728;28;20020;-78
2021/06/05 07:15:25;;;;;;;8.75;2.60;;;23.10;66.10;;;;;;5081523;28;20090;-77
2021/06/05 07:17:50;;;;;;;10.57;4.95;;;23.10;66.20;;;;;;5074399;28;20020;-78
2021/06/05 07:20:16;;;;;;;13.27;5.82;;;23.10;65.50;;;;;;5090711;28;20599;-77
2021/06/05 07:22:42;;;;;;;10.70;7.20;;;23.00;64.90;;;;;;5091935;28;20032;-77
2021/06/05 07:25:08;;;;;;;10.20;6.88;;;23.00;64.60;;;;;;5086288;28;20077;-77
2021/06/05 07:27:34;;;;;;;10.45;7.38;;;23.00;63.50;;;;;;5083140;28;20040;-76
2021/06/05 07:29:59;;;;;;;11.48;6.82;;;23.00;63.50;;;;;;5082791;28;20101;-79
2021/06/05 07:32:25;;;;;;;8.75;5.65;;;22.90;63.40;;;;;;5065753;28;20017;-78
2021/06/05 07:34:50;;;;;;;9.07;7.68;;;23.00;63.30;;;;;;5076612;28;20012;-78
2021/06/05 07:37:20;;;;;;;10.40;7.05;;;22.90;62.40;;;;;;5086548;28;20025;-77
2021/06/05 07:39:45;;;;;;;8.38;6.47;;;22.90;62.30;;;;;;5058623;28;20035;-78
2021/06/05 07:42:11;;;;;;;9.82;7.55;;;22.90;62.60;;;;;;5071780;28;20020;-78
2021/06/05 07:44:36;;;;;;;10.15;6.80;;;22.90;62.70;;;;;;5088024;28;20394;-78
2021/06/05 07:47:02;;;;;;;7.03;5.00;;;22.90;62.80;;;;;;5086174;28;20040;-79
2021/06/05 07:49:33;;;;;;;7.22;5.20;;;22.90;63.10;;;;;;5090327;28;20034;-78
2021/06/05 07:51:59;;;;;;;8.63;5.63;;;22.90;63.40;;;;;;5061587;28;20051;-77
2021/06/05 07:54:25;;;;;;;8.55;3.40;;;23.00;63.70;;;;;;5071095;28;20027;-77
2021/06/05 07:56:50;;;;;;;7.20;4.22;;;23.00;64.20;;;;;;5086247;28;20020;-77
2021/06/05 07:59:17;;;;;;;9.23;4.55;;;23.00;64.30;;;;;;5076699;28;20024;-76
2021/06/05 08:01:43;;;;;;;7.25;4.45;;;22.90;64.20;;;;;;5071522;28;20141;-77
2021/06/05 08:04:09;;;;;;;7.53;4.55;;;22.90;64.20;;;;;;5054722;28;20028;-77
2021/06/05 08:06:34;;;;;;;7.85;4.68;;;22.90;64.20;;;;;;5076975;28;20091;-77
2021/06/05 08:09:00;;;;;;;8.55;4.63;;;22.90;64.20;;;;;;5071254;28;20028;-76
2021/06/05 08:11:25;;;;;;;9.07;4.72;;;22.90;64.20;;;;;;5054584;28;20025;-76
2021/06/05 08:13:51;;;;;;;10.93;4.45;;;23.00;64.30;;;;;;5071137;28;20082;-76
2021/06/05 08:16:17;;;;;;;7.80;4.90;;;23.00;64.40;;;;;;5054409;28;20016;-76
2021/06/05 08:18:42;;;;;;;6.80;4.88;;;22.90;64.40;;;;;;5054463;28;20459;-76
2021/06/05 08:21:12;;;;;;;6.53;4.20;;;23.00;64.40;;;;;;5081466;28;20032;-76
2021/06/05 08:23:38;;;;;;;8.13;4.60;;;22.90;64.20;;;;;;5080391;28;20043;-75
2021/06/05 08:26:03;;;;;;;8.23;4.72;;;23.00;64.10;;;;;;5082590;28;20395;-76
2021/06/05 08:28:29;;;;;;;7.55;4.53;;;23.00;64.20;;;;;;5073587;28;20039;-76
2021/06/05 08:30:57;;;;;;;7.43;4.65;;;22.90;64.20;;;;;;5062005;28;20032;-77
2021/06/05 08:33:23;;;;;;;5.78;4.25;;;23.00;64.50;;;;;;5072753;28;20485;-76
2021/06/05 08:35:49;;;;;;;8.10;4.40;;;23.00;64.60;;;;;;5079710;28;20028;-76
2021/06/05 08:38:17;;;;;;;7.03;4.13;;;23.00;64.70;;;;;;5084098;28;20019;-76
2021/06/05 08:40:50;;;;;;;7.43;4.68;;;23.00;64.90;;;;;;5077038;28;20020;-76
2021/06/05 08:43:23;;;;;;;9.48;4.40;;;23.00;65.00;;;;;;5077114;28;20016;-76
2021/06/05 08:45:49;;;;;;;6.05;4.32;;;23.00;65.10;;;;;;5075179;28;20035;-76
2021/06/05 08:48:16;;;;;;;7.38;4.68;;;23.00;65.20;;;;;;5058163;28;20052;-76
2021/06/05 08:50:42;;;;;;;8.50;4.63;;;23.00;65.20;;;;;;5049785;28;20036;-76
2021/06/05 08:53:18;;;;;;;7.45;5.55;;;23.00;65.20;;;;;;5062568;28;20040;-77
2021/06/05 08:55:58;;;;;;;10.68;5.60;;;23.00;65.40;;;;;;5053427;28;20024;-78
2021/06/05 08:58:38;;;;;;;8.15;5.15;;;23.00;65.60;;;;;;5072778;28;20035;-79
2021/06/05 09:01:17;;;;;;;24.60;7.90;;;23.00;65.60;;;;;;5069816;28;20058;-79
2021/06/05 09:03:43;;;;;;;10.68;5.30;;;23.10;66.00;;;;;;5079754;28;20103;-85
2021/06/05 09:06:20;;;;;;;10.45;5.85;;;23.10;66.00;;;;;;5091610;28;20044;-77
2021/06/05 09:08:46;;;;;;;10.55;5.50;;;23.20;66.30;;;;;;5083557;28;20040;-80
2021/06/05 09:11:12;;;;;;;6.72;5.10;;;23.20;66.00;;;;;;5093562;28;20111;-79
2021/06/05 09:13:38;;;;;;;8.77;4.90;;;23.20;65.80;;;;;;5067628;28;20126;-80
2021/06/05 09:16:19;;;;;;;9.63;5.53;;;23.20;65.80;;;;;;5079734;28;20435;-77
2021/06/05 09:18:55;;;;;;;9.00;5.00;;;23.20;66.00;;;;;;5075365;28;20102;-77
2021/06/05 09:21:32;;;;;;;7.28;5.07;;;23.30;65.80;;;;;;5091390;28;20509;-77
2021/06/05 09:24:26;;;;;;;14.60;5.18;;;23.20;65.80;;;;;;5055191;28;20032;-76
2021/06/05 09:27:20;;;;;;;9.75;5.45;;;23.20;66.00;;;;;;5046033;28;20074;-76
2021/06/05 09:30:02;;;;;;;9.75;5.10;;;23.30;65.90;;;;;;5070520;28;20036;-76
2021/06/05 09:32:51;;;;;;;10.13;4.85;;;23.20;65.90;;;;;;5070454;28;20590;-77
2021/06/05 09:35:22;;;;;;;8.60;4.47;;;23.20;65.90;;;;;;5073310;28;20020;-77
2021/06/05 09:37:54;;;;;;;9.38;4.97;;;23.20;65.90;;;;;;5058041;28;20060;-77
2021/06/05 09:40:23;;;;;;;9.20;4.90;;;23.20;66.00;;;;;;5056274;28;20463;-76
2021/06/05 09:42:50;;;;;;;7.82;4.30;;;23.20;66.00;;;;;;5083085;28;20024;-77
2021/06/05 09:45:23;;;;;;;9.25;4.80;;;23.20;66.10;;;;;;5065949;28;20016;-77
2021/06/05 09:47:49;;;;;;;11.75;5.00;;;23.20;66.20;;;;;;5073806;28;20087;-77
2021/06/05 09:50:19;;;;;;;10.88;4.70;;;23.20;66.30;;;;;;5073453;28;20063;-77
2021/06/05 09:52:45;;;;;;;9.82;5.05;;;23.20;66.20;;;;;;5084930;28;20031;-77
2021/06/05 09:55:32;;;;;;;8.77;4.53;;;23.20;66.40;;;;;;5079214;28;20371;-77
2021/06/05 09:57:59;;;;;;;7.70;4.68;;;23.20;66.10;;;;;;5074343;28;20103;-80
2021/06/05 10:00:37;;;;;;;8.30;4.70;;;23.20;65.90;;;;;;5073853;28;20058;-78
2021/06/05 10:03:26;;;;;;;7.82;4.43;;;23.20;65.90;;;;;;5073564;28;20040;-77
2021/06/05 10:05:52;;;;;;;9.75;5.18;;;23.20;65.90;;;;;;5073187;28;20017;-77
2021/06/05 10:08:34;;;;;;;10.32;4.88;;;23.20;65.90;;;;;;5074564;28;20472;-78
2021/06/05 10:11:02;;;;;;;9.43;4.55;;;23.20;66.00;;;;;;5073350;28;20391;-77
2021/06/05 10:13:30;;;;;;;8.25;4.53;;;23.20;66.00;;;;;;5073467;28;20078;-79
2021/06/05 10:16:00;;;;;;;9.10;4.13;;;23.20;66.00;;;;;;5082646;28;20032;-77
2021/06/05 10:18:43;;;;;;;7.72;4.45;;;23.20;66.00;;;;;;5085315;28;20085;-77
2021/06/05 10:21:14;;;;;;;6.72;4.30;;;23.20;66.00;;;;;;5073462;28;20017;-77
2021/06/05 10:23:42;;;;;;;8.77;4.63;;;23.20;66.10;;;;;;5061990;28;20070;-77
2021/06/05 10:26:41;;;;;;;8.80;4.22;;;23.20;66.00;;;;;;5078318;28;20104;-76
2021/06/05 10:29:30;;;;;;;7.38;3.85;;;23.20;66.10;;;;;;5073300;28;20037;-76
2021/06/05 10:31:56;;;;;;;7.10;4.43;;;23.20;66.00;;;;;;5056554;28;20033;-77
2021/06/05 10:34:42;;;;;;;6.55;3.95;;;23.20;66.00;;;;;;5073021;28;20033;-76
2021/06/05 10:37:14;;;;;;;9.77;4.53;;;23.20;66.00;;;;;;5072922;28;20169;-76
2021/06/05 10:39:41;;;;;;;9.20;4.88;;;23.20;66.00;;;;;;5073104;28;20021;-76
2021/06/05 10:42:19;;;;;;;9.55;4.68;;;23.20;66.00;;;;;;5072998;28;20471;-76
2021/06/05 10:44:45;;;;;;;8.20;4.65;;;23.20;65.90;;;;;;5074274;28;20052;-76
2021/06/05 10:47:14;;;;;;;7.53;4.53;;;23.20;65.90;;;;;;5055806;28;20040;-76
2021/06/05 10:50:00;;;;;;;10.40;4.63;;;23.20;66.10;;;;;;5073881;28;20059;-76
2021/06/05 10:52:33;;;;;;;8.73;4.38;;;23.20;66.30;;;;;;5055232;28;20028;-76
2021/06/05 10:55:08;;;;;;;8.38;4.18;;;23.20;66.30;;;;;;5093261;28;20028;-75
2021/06/05 10:57:42;;;;;;;8.05;4.22;;;23.20;66.20;;;;;;5082293;28;20575;-76
2021/06/05 11:00:47;;;;;;;8.00;4.30;;;23.20;66.30;;;;;;5062436;28;20059;-76
2021/06/05 11:03:43;;;;;;;7.13;4.35;;;23.20;66.40;;;;;;5086313;28;20024;-76
2021/06/05 11:06:10;;;;;;;9.32;4.47;;;23.20;66.30;;;;;;5076199;28;20028;-76
2021/06/05 11:08:48;;;;;;;10.00;4.43;;;23.20;66.40;;;;;;5078842;28;20032;-76
2021/06/05 11:11:34;;;;;;;10.05;4.43;;;23.20;66.30;;;;;;5081112;28;20032;-76
2021/06/05 11:14:06;;;;;;;8.52;4.43;;;23.20;66.40;;;;;;5070930;28;20025;-76
2021/06/05 11:16:57;;;;;;;9.32;4.40;;;23.20;66.60;;;;;;5076162;28;20060;-77
2021/06/05 11:19:47;;;;;;;6.85;3.78;;;23.30;66.60;;;;;;5088170;28;20025;-77
2021/06/05 11:22:23;;;;;;;5.85;3.85;;;23.30;66.60;;;;;;5078003;28;20024;-77
2021/06/05 11:25:07;;;;;;;7.95;4.25;;;23.20;66.70;;;;;;5080547;28;20024;-77
2021/06/05 11:27:36;;;;;;;11.93;4.25;;;23.30;66.80;;;;;;5076062;28;20494;-76
2021/06/05 11:31:50;;;;;;;11.85;4.55;;;23.20;66.10;;;;;;5103370;27;20882;-77
2021/06/05 11:34:37;;;;;;;6.93;3.75;;;23.30;66.60;;;;;;5087881;28;20028;-76
2021/06/05 11:37:06;;;;;;;7.78;4.03;;;23.20;66.70;;;;;;5089142;28;20025;-77
2021/06/05 11:39:31;;;;;;;8.27;4.07;;;23.20;66.90;;;;;;5089774;28;20025;-76
2021/06/05 11:42:03;;;;;;;6.72;3.97;;;23.20;67.00;;;;;;5086841;28;20026;-77
2021/06/05 11:44:37;;;;;;;11.02;4.05;;;23.20;66.90;;;;;;5074457;28;20028;-76
2021/06/05 11:47:23;;;;;;;8.60;3.78;;;23.20;66.80;;;;;;5088924;28;20019;-77
2021/06/05 11:50:19;;;;;;;6.53;3.78;;;23.20;66.70;;;;;;5097948;28;20102;-76
2021/06/05 11:52:46;;;;;;;8.38;4.07;;;23.30;66.70;;;;;;5092836;28;20024;-76
2021/06/05 11:55:15;;;;;;;9.68;4.32;;;23.20;66.60;;;;;;5079464;28;20513;-77
2021/06/05 11:57:53;;;;;;;9.07;5.00;;;23.30;66.70;;;;;;5081010;28;20020;-76
2021/06/05 12:00:27;;;;;;;7.35;4.22;;;23.30;66.70;;;;;;5098192;28;20020;-76
2021/06/05 12:03:03;;;;;;;7.93;3.92;;;23.20;66.50;;;;;;5090247;28;20066;-76
2021/06/05 12:05:33;;;;;;;6.47;4.03;;;23.30;66.60;;;;;;5089781;28;20025;-77
2021/06/05 12:07:58;;;;;;;9.45;4.10;;;23.30;66.60;;;;;;5091861;28;20012;-76
2021/06/05 12:10:30;;;;;;;6.88;4.10;;;23.20;66.50;;;;;;5082211;28;20101;-76
2021/06/05 12:13:01;;;;;;;8.43;3.78;;;23.30;66.50;;;;;;5095027;28;20019;-76
2021/06/05 12:15:33;;;;;;;5.63;3.67;;;23.20;66.40;;;;;;5074635;28;20028;-76
2021/06/05 12:18:02;;;;;;;6.85;3.83;;;23.20;66.50;;;;;;5070201;28;20021;-76
2021/06/05 12:20:42;;;;;;;5.90;3.60;;;23.20;66.40;;;;;;5088434;28;20539;-76
2021/06/05 12:23:37;;;;;;;7.20;3.80;;;23.20;66.40;;;;;;5090947;28;20070;-76
2021/06/05 12:26:07;;;;;;;8.13;3.50;;;23.20;66.40;;;;;;5087174;28;20462;-76
2021/06/05 12:28:35;;;;;;;7.05;3.70;;;23.20;66.40;;;;;;5086191;28;20032;-76
2021/06/05 12:31:12;;;;;;;6.65;3.75;;;23.20;66.50;;;;;;5087675;28;20044;-76
2021/06/05 12:33:37;;;;;;;6.75;3.88;;;23.20;66.50;;;;;;5087865;28;20124;-76
2021/06/05 12:38:32;;;;;;;6.07;3.47;;;23.20;66.00;;;;;;5098216;27;20863;-81
2021/06/05 12:41:04;;;;;;;8.45;3.67;;;23.30;66.60;;;;;;5066902;28;20043;-76
2021/06/05 12:43:32;;;;;;;10.10;3.88;;;23.20;66.60;;;;;;5048956;28;20040;-76
2021/06/05 12:46:03;;;;;;;8.05;4.20;;;23.20;66.60;;;;;;5082722;28;20028;-77
2021/06/05 12:48:29;;;;;;;6.88;3.60;;;23.30;66.60;;;;;;5078778;28;20035;-75
2021/06/05 12:50:55;;;;;;;8.27;3.53;;;23.30;67.10;;;;;;5084991;28;20544;-76
2021/06/05 12:53:22;;;;;;;7.93;3.72;;;23.20;66.40;;;;;;5075291;28;20082;-77
2021/06/05 12:56:02;;;;;;;6.18;3.40;;;23.20;66.30;;;;;;5075635;28;20024;-76
2021/06/05 12:58:36;;;;;;;6.70;3.20;;;23.30;66.30;;;;;;5092882;28;20033;-76
2021/06/05 13:01:04;;;;;;;6.90;3.75;;;23.30;66.40;;;;;;5087222;28;20054;-76
2021/06/05 13:03:43;;;;;;;6.78;3.20;;;23.30;66.30;;;;;;5090851;28;20509;-76
2021/06/05 13:06:21;;;;;;;8.80;3.50;;;23.30;66.30;;;;;;5079861;28;20611;-77
2021/06/05 13:08:48;;;;;;;8.82;3.60;;;23.30;66.50;;;;;;5090202;28;20020;-76
2021/06/05 13:11:36;;;;;;;6.82;3.67;;;23.30;66.40;;;;;;5083669;28;20024;-77
2021/06/05 13:14:07;;;;;;;8.45;3.85;;;23.30;66.40;;;;;;5091531;28;20103;-75
2021/06/05 13:16:32;;;;;;;9.85;3.80;;;23.30;66.40;;;;;;5098585;28;20020;-75
2021/06/05 13:19:16;;;;;;;7.03;3.55;;;23.30;66.40;;;;;;5095028;28;20071;-76
2021/06/05 13:21:41;;;;;;;6.20;3.10;;;23.30;66.50;;;;;;5094696;28;20664;-75
2021/06/05 13:24:28;;;;;;;6.15;3.20;;;23.30;66.00;;;;;;5099103;27;20399;-75
2021/06/05 13:27:15;;;;;;;7.38;3.65;;;23.30;66.40;;;;;;5084075;28;20020;-75
2021/06/05 13:29:42;;;;;;;5.82;3.50;;;23.30;66.30;;;;;;5081461;28;20074;-75
2021/06/05 13:33:49;;;;;;;7.78;3.08;;;23.30;65.80;;;;;;5058108;27;20407;-76
2021/06/05 13:36:20;;;;;;;7.27;3.53;;;23.30;66.20;;;;;;5078474;28;20036;-76
2021/06/05 13:39:07;;;;;;;6.25;3.65;;;23.30;66.10;;;;;;5064951;28;20028;-75
2021/06/05 13:41:32;;;;;;;5.65;2.97;;;23.30;66.10;;;;;;5061067;28;20480;-75
2021/06/05 13:43:58;;;;;;;6.93;3.28;;;23.20;66.00;;;;;;5064821;28;20025;-75
2021/06/05 13:46:23;;;;;;;5.60;2.92;;;23.30;66.00;;;;;;5062164;28;20078;-75
2021/06/05 13:48:49;;;;;;;8.63;3.63;;;23.30;66.00;;;;;;5064390;28;20045;-75
2021/06/05 13:51:15;;;;;;;6.95;3.00;;;23.30;66.60;;;;;;5054725;28;20043;-79
2021/06/05 13:53:40;;;;;;;6.70;2.75;;;23.30;66.10;;;;;;5060956;28;20488;-87
2021/06/05 13:56:09;;;;;;;4.70;3.33;;;23.30;66.00;;;;;;5046205;28;20728;-82
2021/06/05 13:58:36;;;;;;;5.65;3.22;;;23.30;65.90;;;;;;5050744;28;20055;-84
2021/06/05 14:01:02;;;;;;;6.28;3.13;;;23.30;65.90;;;;;;5054555;28;20029;-82
2021/06/05 14:03:27;;;;;;;5.40;3.03;;;23.30;65.90;;;;;;5048536;28;20468;-79
2021/06/05 14:05:53;;;;;;;4.90;2.65;;;23.30;65.90;;;;;;5043245;28;20029;-76
2021/06/05 14:08:19;;;;;;;6.22;2.92;;;23.30;66.00;;;;;;5066290;28;20107;-87
2021/06/05 14:10:45;;;;;;;7.35;3.55;;;23.30;66.00;;;;;;5054974;28;20546;-87
2021/06/05 14:13:11;;;;;;;5.88;3.25;;;23.30;66.00;;;;;;5046780;28;20120;-79
2021/06/05 14:15:46;;;;;;;6.95;2.97;;;23.30;66.00;;;;;;5057567;28;20031;-79
2021/06/05 14:18:13;;;;;;;4.72;2.78;;;23.40;66.10;;;;;;5067424;28;20017;-82
2021/06/05 14:20:42;;;;;;;4.97;2.78;;;23.40;66.10;;;;;;5044463;28;20032;-81
2021/06/05 14:23:48;;;;;;;9.52;3.78;;;23.40;65.60;;;;;;5104333;27;20731;-77
2021/06/05 14:26:14;;;;;;;6.45;2.85;;;23.40;66.10;;;;;;5073126;28;20024;-81
2021/06/05 14:29:50;;;;;;;5.70;3.15;;;23.40;65.60;;;;;;5104102;27;20130;-77
2021/06/05 14:34:20;;;;;;;5.65;2.88;;;23.40;65.70;;;;;;5089936;27;20732;-77
2021/06/05 14:36:45;;;;;;;5.20;2.85;;;23.30;66.20;;;;;;5063725;28;20039;-76
2021/06/05 14:39:11;;;;;;;6.28;2.67;;;23.40;66.30;;;;;;5058424;28;20021;-77
2021/06/05 14:42:00;;;;;;;10.38;3.78;;;23.40;66.30;;;;;;5068406;28;20467;-76
2021/06/05 14:44:26;;;;;;;5.85;2.72;;;23.40;66.60;;;;;;5049181;28;20024;-76
2021/06/05 14:46:51;;;;;;;6.95;3.10;;;23.30;66.50;;;;;;5076068;28;20073;-78
2021/06/05 14:49:17;;;;;;;7.03;3.17;;;23.40;66.80;;;;;;5057986;28;20017;-82
2021/06/05 14:51:43;;;;;;;7.95;3.20;;;23.40;66.80;;;;;;5067293;28;20167;-82
2021/06/05 14:54:10;;;;;;;6.25;3.08;;;23.40;66.90;;;;;;5061110;28;20059;-74
2021/06/05 14:56:35;;;;;;;7.45;3.20;;;23.40;66.80;;;;;;5044889;28;20108;-75
2021/06/05 14:59:01;;;;;;;7.13;3.55;;;23.40;66.90;;;;;;5072018;28;20518;-76
2021/06/05 15:01:26;;;;;;;9.70;3.65;;;23.40;66.90;;;;;;5072666;28;20033;-78
2021/06/05 15:03:52;;;;;;;7.15;2.88;;;23.40;67.60;;;;;;5063451;28;20411;-80
2021/06/05 15:06:18;;;;;;;8.05;3.05;;;23.40;67.20;;;;;;5068757;28;20487;-80
2021/06/05 15:08:43;;;;;;;7.30;3.33;;;23.40;67.30;;;;;;5045462;28;20047;-77
2021/06/05 15:11:09;;;;;;;11.77;3.50;;;23.40;67.20;;;;;;5072970;28;20166;-77
2021/06/05 15:13:35;;;;;;;10.20;3.38;;;23.50;67.50;;;;;;5067660;28;20063;-76
2021/06/05 15:16:00;;;;;;;14.48;4.13;;;23.50;67.30;;;;;;5064171;28;20020;-77
2021/06/05 15:18:26;;;;;;;8.70;3.08;;;23.50;67.60;;;;;;5074068;28;20427;-78
2021/06/05 15:20:52;;;;;;;7.93;3.55;;;23.50;67.20;;;;;;5066274;28;20021;-77
2021/06/05 15:23:18;;;;;;;8.98;2.65;;;23.50;67.10;;;;;;5065984;28;20074;-77
2021/06/05 15:25:44;;;;;;;7.50;2.95;;;23.50;67.30;;;;;;5062555;28;20029;-80
2021/06/05 15:28:10;;;;;;;8.80;3.00;;;23.50;67.30;;;;;;5065467;28;20824;-78
2021/06/05 15:30:37;;;;;;;7.10;3.10;;;23.50;67.30;;;;;;5062922;28;20213;-78
2021/06/05 15:33:04;;;;;;;7.00;3.03;;;23.40;67.40;;;;;;5054817;28;20776;-78
2021/06/05 15:35:30;;;;;;;9.40;3.20;;;23.40;67.30;;;;;;5065496;28;20028;-79
2021/06/05 15:37:56;;;;;;;11.30;3.22;;;23.40;67.40;;;;;;5047965;28;20017;-80
2021/06/05 15:40:23;;;;;;;7.38;2.95;;;23.40;67.40;;;;;;5060559;28;20052;-78
2021/06/05 15:42:49;;;;;;;5.53;2.67;;;23.40;67.50;;;;;;5061788;28;20025;-78
2021/06/05 15:45:23;;;;;;;7.90;2.72;;;23.40;67.60;;;;;;5057613;28;20025;-78
2021/06/05 15:47:49;;;;;;;7.63;3.17;;;23.40;67.70;;;;;;5051302;28;20497;-78
2021/06/05 15:50:16;;;;;;;4.68;2.63;;;23.40;67.70;;;;;;5059936;28;20044;-78
2021/06/05 15:52:42;;;;;;;7.35;3.35;;;23.40;67.80;;;;;;5052366;28;20041;-78
2021/06/05 15:55:08;;;;;;;10.23;2.70;;;23.40;67.70;;;;;;5054295;28;20024;-78
2021/06/05 15:57:34;;;;;;;5.75;2.80;;;23.40;67.80;;;;;;5061631;28;20398;-79
2021/06/05 15:59:59;;;;;;;12.40;2.90;;;23.40;67.70;;;;;;5054334;28;20024;-79
2021/06/05 16:02:25;;;;;;;5.07;2.80;;;23.40;67.90;;;;;;5051344;28;20028;-80
2021/06/05 16:04:50;;;;;;;7.30;2.60;;;23.40;67.70;;;;;;5051622;28;20033;-78
2021/06/05 16:07:16;;;;;;;3.97;2.10;;;23.40;67.60;;;;;;5070484;28;20021;-78
2021/06/05 16:09:44;;;;;;;7.20;2.92;;;23.40;67.70;;;;;;5071058;28;20064;-78
2021/06/05 16:12:10;;;;;;;6.57;2.97;;;23.40;67.80;;;;;;5072255;28;20013;-80
2021/06/05 16:14:35;;;;;;;6.28;2.40;;;23.30;67.70;;;;;;5071116;28;20026;-78
2021/06/05 16:17:01;;;;;;;7.90;2.53;;;23.30;67.70;;;;;;5079203;28;20028;-78
2021/06/05 16:19:29;;;;;;;7.07;2.33;;;23.30;67.80;;;;;;5070683;28;20033;-78
2021/06/05 16:21:54;;;;;;;7.07;3.05;;;23.30;67.70;;;;;;5035156;28;20029;-78
2021/06/05 16:24:25;;;;;;;5.20;2.70;;;23.30;67.60;;;;;;5052339;28;20541;-78
2021/06/05 16:26:51;;;;;;;6.25;2.72;;;23.30;67.30;;;;;;5050898;28;20054;-78
2021/06/05 16:29:17;;;;;;;10.73;3.70;;;23.30;67.20;;;;;;5050737;28;20024;-78
2021/06/05 16:31:42;;;;;;;7.03;3.17;;;23.30;67.30;;;;;;5050799;28;20021;-79
2021/06/05 16:34:08;;;;;;;7.95;3.60;;;23.30;67.50;;;;;;5050444;28;20628;-78
2021/06/05 16:36:34;;;;;;;8.75;3.75;;;23.30;67.40;;;;;;5072089;28;20031;-78
2021/06/05 16:38:59;;;;;;;7.20;4.22;;;23.30;67.50;;;;;;5079997;28;20035;-80
2021/06/05 16:41:25;;;;;;;10.85;5.43;;;23.30;67.50;;;;;;5066322;28;20020;-79
2021/06/05 16:43:51;;;;;;;13.13;7.20;;;23.30;67.60;;;;;;5069395;28;20141;-79
2021/06/05 16:46:17;;;;;;;13.48;6.43;;;23.30;67.60;;;;;;5071517;28;20060;-78
2021/06/05 16:48:43;;;;;;;13.45;6.55;;;23.30;67.60;;;;;;5066765;28;20032;-80
2021/06/05 16:51:09;;;;;;;14.75;7.10;;;23.30;67.60;;;;;;5068765;28;20037;-79
2021/06/05 16:53:36;;;;;;;12.88;6.43;;;23.30;67.60;;;;;;5068905;28;20042;-78
2021/06/05 16:56:04;;;;;;;11.13;5.80;;;23.30;67.70;;;;;;5085796;28;20020;-79
2021/06/05 16:58:32;;;;;;;10.48;5.32;;;23.30;67.70;;;;;;5065795;28;20028;-79
2021/06/05 17:00:59;;;;;;;9.35;5.35;;;23.30;67.80;;;;;;5065977;28;20028;-79
2021/06/05 17:03:25;;;;;;;8.50;4.95;;;23.30;67.70;;;;;;5048391;28;20641;-79
2021/06/05 17:05:52;;;;;;;10.13;5.15;;;23.30;67.80;;;;;;5060182;28;20028;-79
2021/06/05 17:08:17;;;;;;;9.73;4.65;;;23.30;67.70;;;;;;5076999;28;20021;-79
2021/06/05 17:10:43;;;;;;;12.10;5.07;;;23.30;67.70;;;;;;5061948;28;20569;-78
2021/06/05 17:13:11;;;;;;;9.15;4.53;;;23.30;67.70;;;;;;5062580;28;20812;-78
2021/06/05 17:15:39;;;;;;;9.95;4.95;;;23.30;67.70;;;;;;5047221;28;20033;-78
2021/06/05 17:18:05;;;;;;;11.38;4.88;;;23.30;67.70;;;;;;5069572;28;20032;-78
2021/06/05 17:20:31;;;;;;;13.88;4.45;;;23.30;67.70;;;;;;5064741;28;20036;-77
2021/06/05 17:22:57;;;;;;;8.50;4.50;;;23.30;67.70;;;;;;5064680;28;20028;-78
2021/06/05 17:25:25;;;;;;;7.20;3.92;;;23.30;67.70;;;;;;5066140;28;20032;-78
2021/06/05 17:27:51;;;;;;;9.45;4.05;;;23.30;67.70;;;;;;5064567;28;20024;-78
2021/06/05 17:30:18;;;;;;;12.10;3.95;;;23.30;67.70;;;;;;5064548;28;20040;-78
2021/06/05 17:32:43;;;;;;;9.32;3.80;;;23.30;67.70;;;;;;5063660;28;20678;-79
2021/06/05 17:35:10;;;;;;;9.40;4.22;;;23.30;67.70;;;;;;5063759;28;20036;-78
2021/06/05 17:37:36;;;;;;;11.57;3.88;;;23.30;67.70;;;;;;5047533;28;20029;-78
2021/06/05 17:40:03;;;;;;;7.65;3.60;;;23.30;67.70;;;;;;5064481;28;20034;-78
2021/06/05 17:42:29;;;;;;;12.10;4.22;;;23.30;67.60;;;;;;5064569;28;20375;-78
2021/06/05 17:44:54;;;;;;;15.98;6.18;;;23.30;67.50;;;;;;5064582;28;20028;-77
2021/06/05 17:47:20;;;;;;;10.20;5.10;;;23.30;67.30;;;;;;5047505;28;20107;-79
2021/06/05 17:49:45;;;;;;;15.57;5.93;;;23.30;67.10;;;;;;5047411;28;20054;-78
2021/06/05 17:52:12;;;;;;;18.67;6.05;;;23.30;67.10;;;;;;5060212;28;20056;-79
2021/06/05 17:54:38;;;;;;;10.35;4.57;;;23.30;66.90;;;;;;5033703;28;20149;-78